Terminal Aerodrome Forecast
Issued by NWS

Home | Current Version | Previous Version | Text Only | Print | Product List | Glossary On
Versions: 1 2 3 4 5 6 7 8 9 10 11 12 13 14 15 16 17 18 19 20 21 22 23 24 25 26 27 28 29 30 31 32 33 34 35
000
FTAK31 PANC 241741
TAFACV
TAF
PACV 241741Z 2418/2518 VRB04KT P6SM SCT015 BKN030 OVC045
      TEMPO 2418/2420 SCT030 BKN045
     FM242100 25005KT P6SM SCT025 BKN045
     FM250600 VRB03KT P6SM SCT025 BKN040=

USA.gov is the U.S. government's official web portal to all federal, state and local government web resources and services.